Time;durP1;ratioP1;P1;durP2;ratioP2;P2;SDS_P1;SDS_P2;PMS_P1;PMS_P2;Temp;Humidity;BMP_temperature;BMP_pressure;BME280_temperature;BME280_humidity;BME280_pressure;Samples;Min_cycle;Max_cycle;Signal;HPM_P1;HPM_P2
2022/12/12 01:57:44;;;;;;;25.60;16.35;;;;;;;1.84;86.67;92803.51;1832443;77;25745;-44
2022/12/12 02:00:12;;;;;;;29.48;18.55;;;;;;;1.78;86.92;92798.47;1788005;79;21452;-44
2022/12/12 02:02:39;;;;;;;53.05;29.95;;;;;;;1.75;86.97;92805.38;1807522;79;21869;-44
2022/12/12 02:05:27;;;;;;;26.52;18.05;;;;;;;1.74;87.14;92801.16;1801447;78;20965;-44
2022/12/12 02:07:54;;;;;;;21.62;15.55;;;;;;;1.78;87.37;92795.02;1732251;81;20994;-51
2022/12/12 02:10:20;;;;;;;20.23;14.95;;;;;;;1.78;87.24;92801.79;1732665;82;21608;-44
2022/12/12 02:12:47;;;;;;;15.70;13.38;;;;;;;1.76;87.17;92799.51;1734642;82;21010;-44
2022/12/12 02:15:14;;;;;;;15.13;13.25;;;;;;;1.75;86.82;92808.09;1727538;82;21145;-45
2022/12/12 02:17:49;;;;;;;21.87;15.50;;;;;;;1.72;86.77;92807.59;1725463;82;21459;-44
2022/12/12 02:20:42;;;;;;;22.35;16.30;;;;;;;1.74;87.31;92800.55;1724553;81;21009;-43
2022/12/12 02:23:41;;;;;;;24.85;18.75;;;;;;;1.85;86.98;92805.02;1741193;81;21074;-44
2022/12/12 02:26:47;;;;;;;39.55;23.75;;;;;;;1.90;86.69;92805.04;1734671;81;21006;-44
2022/12/12 02:29:45;;;;;;;29.63;20.40;;;;;;;1.88;86.28;92806.84;1740947;81;21225;-44
2022/12/12 02:32:41;;;;;;;28.75;21.62;;;;;;;1.83;86.12;92810.71;1728656;81;21017;-44
2022/12/12 02:35:22;;;;;;;35.15;23.47;;;;;;;1.80;86.20;92818.37;1733092;82;21033;-43
2022/12/12 02:38:23;;;;;;;25.40;17.37;;;;;;;1.84;86.25;92825.78;1736957;82;20986;-43
2022/12/12 02:41:09;;;;;;;26.23;18.17;;;;;;;1.87;86.25;92821.60;1734222;82;21572;-43
2022/12/12 02:43:44;;;;;;;22.42;17.25;;;;;;;1.95;86.06;92831.61;1722240;81;21599;-44
2022/12/12 02:46:19;;;;;;;27.27;18.62;;;;;;;1.96;85.65;92827.70;1802133;78;21605;-43
2022/12/12 02:48:57;;;;;;;37.95;23.25;;;;;;;2.04;85.96;92828.96;1722967;81;21032;-43
2022/12/12 02:51:24;;;;;;;33.55;21.75;;;;;;;2.13;85.43;92829.05;1662217;85;21006;-44
2022/12/12 02:53:51;;;;;;;38.35;23.27;;;;;;;2.15;85.19;92828.75;1673191;84;21025;-44
2022/12/12 02:56:46;;;;;;;47.08;27.27;;;;;;;2.22;85.22;92843.44;1660767;84;21257;-43
2022/12/12 02:59:32;;;;;;;55.12;27.98;;;;;;;2.29;84.85;92831.59;1661801;85;21656;-43
2022/12/12 03:02:25;;;;;;;26.97;17.90;;;;;;;2.33;84.73;92832.22;1638803;85;21237;-44
2022/12/12 03:08:31;;;;;;;17.67;14.27;;;;;;;2.31;84.08;92837.33;1682072;84;21057;-43
2022/12/12 03:11:06;;;;;;;35.88;20.80;;;;;;;2.27;84.08;92842.09;1637714;86;21271;-43
2022/12/12 03:14:05;;;;;;;40.03;24.98;;;;;;;2.26;84.00;92842.71;1636257;86;20972;-43
2022/12/12 03:16:50;;;;;;;25.43;18.23;;;;;;;2.24;83.89;92838.33;1686727;84;21020;-44
2022/12/12 03:19:28;;;;;;;19.75;14.85;;;;;;;2.31;83.98;92842.14;1597115;88;21475;-45
2022/12/12 03:22:13;;;;;;;19.42;14.55;;;;;;;2.39;83.61;92844.78;1604114;89;21172;-44
2022/12/12 03:24:50;;;;;;;15.98;13.88;;;;;;;2.38;82.98;92843.84;1591208;88;21267;-43
2022/12/12 03:27:31;;;;;;;15.83;12.55;;;;;;;2.30;82.93;92833.84;1575733;90;21111;-47
2022/12/12 03:30:08;;;;;;;15.03;12.37;;;;;;;2.25;82.93;92841.20;1567006;90;21121;-43
2022/12/12 03:32:52;;;;;;;20.00;14.58;;;;;;;2.21;82.73;92840.57;1606382;87;21036;-43
2022/12/12 03:35:26;;;;;;;22.95;16.05;;;;;;;2.22;82.69;92849.45;1610346;87;22017;-44
2022/12/12 03:38:11;;;;;;;21.35;16.02;;;;;;;2.26;82.99;92854.14;1605548;87;21333;-44
2022/12/12 03:40:51;;;;;;;18.20;14.28;;;;;;;2.32;82.72;92860.55;1653604;86;20998;-44
2022/12/12 03:43:29;;;;;;;23.42;16.50;;;;;;;2.34;82.54;92852.72;1610809;86;21336;-44
2022/12/12 03:46:22;;;;;;;21.93;16.82;;;;;;;2.33;82.58;92851.95;1620237;86;21112;-44
2022/12/12 03:49:05;;;;;;;42.60;24.30;;;;;;;2.37;82.52;92850.48;1610020;87;21005;-44
2022/12/12 03:51:39;;;;;;;51.85;30.55;;;;;;;2.43;82.78;92854.13;1610050;87;22018;-44
2022/12/12 03:54:22;;;;;;;51.75;30.30;;;;;;;2.53;82.44;92855.72;1587429;88;21117;-44
2022/12/12 03:57:04;;;;;;;64.58;37.58;;;;;;;2.55;82.12;92853.32;1587968;88;21057;-43
2022/12/12 03:59:38;;;;;;;31.60;22.10;;;;;;;2.58;82.11;92852.44;1585865;88;21034;-43
2022/12/12 06:05:38;;;;;;;75.55;41.37;;;;;;;1.09;86.11;92888.16;1836053;77;27488;-52
2022/12/12 06:08:05;;;;;;;75.52;40.65;;;;;;;1.09;86.18;92903.63;1789218;78;21512;-54
2022/12/12 06:10:32;;;;;;;51.83;29.95;;;;;;;1.15;86.32;92899.96;1793729;78;21157;-54
2022/12/12 06:12:59;;;;;;;61.55;33.78;;;;;;;1.28;86.56;92891.26;1821655;78;20946;-53
2022/12/12 06:15:26;;;;;;;63.63;35.60;;;;;;;1.43;86.49;92890.98;1811661;78;20909;-53
2022/12/12 06:17:53;;;;;;;104.38;51.13;;;;;;;1.50;86.05;92888.05;1793835;79;20983;-54
2022/12/12 06:20:20;;;;;;;128.35;66.40;;;;;;;1.53;85.78;92907.49;1801285;79;21526;-51
2022/12/12 06:22:47;;;;;;;120.47;59.40;;;;;;;1.56;85.79;92916.13;1795412;78;21146;-52
2022/12/12 06:25:14;;;;;;;85.28;45.85;;;;;;;1.64;85.83;92921.48;1770382;78;21053;-53
2022/12/12 06:27:42;;;;;;;91.85;48.75;;;;;;;1.72;85.64;92923.38;1768234;79;21014;-53
2022/12/12 06:30:11;;;;;;;91.32;46.70;;;;;;;1.83;85.78;92929.97;1796405;78;21556;-52
2022/12/12 06:32:37;;;;;;;71.82;38.73;;;;;;;1.94;85.41;92920.91;1802844;78;20997;-52
2022/12/12 06:35:07;;;;;;;68.97;39.98;;;;;;;2.03;84.75;92921.77;1746232;81;21511;-52
2022/12/12 06:37:35;;;;;;;61.88;37.73;;;;;;;2.07;84.49;92917.55;1750649;80;21120;-51
2022/12/12 06:40:03;;;;;;;113.32;56.48;;;;;;;2.11;84.23;92925.74;1763115;79;21060;-51
2022/12/12 06:42:30;;;;;;;96.85;54.20;;;;;;;2.08;83.81;92921.78;1765573;80;21487;-52
2022/12/12 06:44:57;;;;;;;73.62;46.60;;;;;;;2.10;84.11;92922.13;1768632;78;21146;-51
2022/12/12 06:47:23;;;;;;;67.78;43.63;;;;;;;2.20;83.97;92926.42;1768018;79;21136;-54
2022/12/12 06:49:51;;;;;;;63.45;38.67;;;;;;;2.26;83.57;92928.73;1779538;79;21061;-55
2022/12/12 06:52:18;;;;;;;59.10;34.78;;;;;;;2.26;83.23;92934.16;1767369;80;21048;-55
2022/12/12 06:54:45;;;;;;;68.17;38.15;;;;;;;2.24;83.33;92933.26;1780890;78;21570;-54
2022/12/12 06:57:12;;;;;;;67.12;37.65;;;;;;;2.29;83.04;92938.12;1786448;79;21978;-54
2022/12/12 06:59:39;;;;;;;51.42;31.60;;;;;;;2.31;83.03;92930.30;1719729;82;21098;-55
2022/12/12 07:02:10;;;;;;;57.20;36.17;;;;;;;2.34;82.80;92930.03;1712234;82;21062;-52
2022/12/12 07:04:37;;;;;;;61.95;37.15;;;;;;;2.30;82.53;92928.78;1718724;81;21105;-55
2022/12/12 07:07:04;;;;;;;55.63;35.17;;;;;;;2.25;82.48;92942.14;1715565;82;21041;-53
2022/12/12 07:09:31;;;;;;;51.42;33.15;;;;;;;2.25;82.82;92951.63;1700004;82;21050;-55
2022/12/12 07:11:58;;;;;;;46.28;30.23;;;;;;;2.24;83.00;92959.61;1719837;82;21265;-55
2022/12/12 07:14:25;;;;;;;52.65;32.65;;;;;;;2.26;82.85;92949.08;1786556;79;21040;-53
2022/12/12 07:16:52;;;;;;;47.30;30.20;;;;;;;2.29;82.92;92960.44;1758671;78;21138;-51
2022/12/12 07:19:21;;;;;;;49.05;34.13;;;;;;;2.31;82.67;92954.71;1768625;78;21525;-53
2022/12/12 07:21:48;;;;;;;49.75;32.17;;;;;;;2.31;82.75;92952.61;1756951;80;21135;-53
2022/12/12 07:24:15;;;;;;;56.53;36.98;;;;;;;2.27;82.55;92958.14;1781309;78;21121;-55
2022/12/12 07:26:50;;;;;;;66.62;40.80;;;;;;;2.33;83.01;92963.78;1783828;78;21841;-51
2022/12/12 07:29:17;;;;;;;66.57;41.80;;;;;;;2.41;82.72;92954.20;1775003;79;21769;-52
2022/12/12 07:31:44;;;;;;;67.85;45.67;;;;;;;2.51;82.68;92955.80;1780981;78;21068;-52
2022/12/12 07:34:13;;;;;;;61.85;38.55;;;;;;;2.57;82.62;92954.04;1769647;79;21104;-52
2022/12/12 07:36:43;;;;;;;74.27;44.77;;;;;;;2.66;82.38;92955.48;1787931;78;21132;-51
2022/12/12 07:39:11;;;;;;;81.65;48.28;;;;;;;2.68;81.94;92953.09;1720777;80;21546;-54
2022/12/12 07:41:40;;;;;;;74.82;44.85;;;;;;;2.68;81.83;92960.61;1778021;78;21051;-50
2022/12/12 07:44:07;;;;;;;54.33;35.85;;;;;;;2.72;81.63;92957.17;1771281;79;21095;-50
2022/12/12 07:46:33;;;;;;;75.05;43.70;;;;;;;2.70;81.34;92958.83;1777733;78;21064;-53
2022/12/12 07:49:00;;;;;;;64.42;38.60;;;;;;;2.72;81.73;92963.22;1773547;78;21295;-52
2022/12/12 07:51:28;;;;;;;73.87;40.28;;;;;;;2.85;81.75;92968.00;1778564;79;21120;-51
2022/12/12 07:53:55;;;;;;;64.32;38.08;;;;;;;2.95;81.33;92976.36;1784884;78;21037;-54
2022/12/12 07:56:24;;;;;;;62.55;39.92;;;;;;;3.03;81.21;92979.00;1743544;80;21021;-51
2022/12/12 07:58:52;;;;;;;54.70;36.25;;;;;;;3.11;80.68;92976.17;1781564;79;21071;-55
2022/12/12 08:01:24;;;;;;;82.27;47.55;;;;;;;3.15;80.31;92976.80;1753067;79;21995;-53
2022/12/12 08:03:51;;;;;;;92.70;57.15;;;;;;;3.15;80.09;92980.30;1743698;79;21009;-49
2022/12/12 08:06:19;;;;;;;67.67;43.10;;;;;;;3.15;80.02;92984.37;1711163;81;21186;-57
2022/12/12 08:08:57;;;;;;;74.97;44.25;;;;;;;3.17;79.99;92992.83;1722457;80;21104;-51
2022/12/12 08:11:26;;;;;;;108.87;60.35;;;;;;;3.18;80.01;92993.57;1740683;80;21087;-55
2022/12/12 08:13:53;;;;;;;88.40;52.83;;;;;;;3.32;80.09;92992.48;1732905;80;21132;-54
2022/12/12 08:16:23;;;;;;;80.20;44.35;;;;;;;3.49;79.52;92995.16;1753586;80;21045;-58
2022/12/12 08:18:53;;;;;;;62.50;38.60;;;;;;;3.62;78.86;92993.09;1745000;80;21096;-53
2022/12/12 08:21:21;;;;;;;56.77;35.88;;;;;;;3.66;77.86;92994.48;1735158;81;21651;-57
2022/12/12 08:23:48;;;;;;;51.08;32.50;;;;;;;3.58;77.72;92991.89;1730094;80;21381;-52
2022/12/12 08:26:17;;;;;;;72.62;43.13;;;;;;;3.56;77.75;92998.38;1732891;80;21252;-54
2022/12/12 08:28:47;;;;;;;59.40;35.33;;;;;;;3.54;77.78;92994.57;1715424;81;21028;-52
2022/12/12 08:31:15;;;;;;;46.83;29.98;;;;;;;3.57;77.69;92993.67;1716994;81;21555;-51
2022/12/12 08:33:42;;;;;;;40.73;27.80;;;;;;;3.57;77.41;92997.17;1711039;81;21707;-51
2022/12/12 08:36:19;;;;;;;42.08;28.38;;;;;;;3.57;77.52;92994.45;1682385;83;21104;-54
2022/12/12 08:38:48;;;;;;;36.93;27.13;;;;;;;3.65;77.93;92998.41;1697697;82;21551;-53
2022/12/12 08:41:14;;;;;;;42.65;29.57;;;;;;;3.78;77.74;92996.36;1675408;83;21190;-52
2022/12/12 08:43:42;;;;;;;43.98;30.95;;;;;;;3.80;77.23;92996.67;1652984;84;21483;-49
2022/12/12 08:46:09;;;;;;;44.67;30.80;;;;;;;3.76;77.10;92998.77;1674304;83;21134;-51
2022/12/12 08:48:36;;;;;;;48.58;34.05;;;;;;;3.78;77.45;93001.80;1650433;84;21157;-52
2022/12/12 08:51:03;;;;;;;44.67;31.40;;;;;;;3.90;77.31;93009.09;1661870;83;21324;-50
2022/12/12 08:53:30;;;;;;;45.03;31.97;;;;;;;4.02;76.80;93005.53;1723486;80;21142;-51
2022/12/12 08:55:57;;;;;;;60.52;37.93;;;;;;;4.03;76.20;93004.32;1718667;81;21036;-52
2022/12/12 08:58:24;;;;;;;107.43;55.03;;;;;;;3.91;76.23;92992.93;1670690;83;21082;-51
2022/12/12 09:00:51;;;;;;;57.13;35.52;;;;;;;3.92;76.76;92989.03;1735007;81;21136;-49
2022/12/12 09:03:19;;;;;;;43.30;31.27;;;;;;;3.99;76.60;92995.55;1748426;79;21214;-53
2022/12/12 09:05:46;;;;;;;93.55;50.52;;;;;;;4.13;76.56;93001.80;1737576;80;21199;-50
2022/12/12 09:08:13;;;;;;;117.33;65.28;;;;;;;4.35;75.92;92997.03;1762121;79;21032;-50
2022/12/12 09:10:40;;;;;;;68.42;43.13;;;;;;;4.53;75.76;92997.66;1770806;78;21232;-50
2022/12/12 09:13:08;;;;;;;61.05;40.38;;;;;;;4.68;74.83;92999.38;1759653;79;21489;-50
2022/12/12 09:15:37;;;;;;;41.45;28.77;;;;;;;4.76;74.27;92999.84;1766676;79;21090;-49
2022/12/12 09:18:05;;;;;;;39.70;29.45;;;;;;;4.73;73.27;92993.32;1774725;78;21095;-53
2022/12/12 09:20:31;;;;;;;34.98;24.43;;;;;;;4.65;73.01;93000.28;1775314;78;20999;-50
2022/12/12 09:22:58;;;;;;;49.13;35.25;;;;;;;4.67;72.75;92998.45;1773491;79;21148;-51
2022/12/12 09:25:25;;;;;;;36.98;26.07;;;;;;;4.69;72.54;93000.89;1719810;81;21613;-52
2022/12/12 09:27:52;;;;;;;40.00;28.15;;;;;;;4.74;72.38;92999.51;1736780;80;21365;-54
2022/12/12 09:30:21;;;;;;;28.60;21.93;;;;;;;4.72;71.88;93006.02;1700352;82;21550;-50
2022/12/12 09:32:48;;;;;;;29.72;21.45;;;;;;;4.65;71.32;93012.53;1711658;82;20988;-52
2022/12/12 09:35:15;;;;;;;33.45;22.62;;;;;;;4.57;71.43;93006.47;1706551;81;21081;-52
2022/12/12 09:37:42;;;;;;;37.63;24.25;;;;;;;4.51;71.02;93008.25;1706116;81;21598;-51
2022/12/12 09:40:17;;;;;;;41.15;28.42;;;;;;;4.39;71.14;93013.23;1716400;81;21141;-50
2022/12/12 09:42:49;;;;;;;41.18;29.07;;;;;;;4.38;71.46;93018.52;1618015;86;21278;-54
2022/12/12 09:45:16;;;;;;;34.43;24.75;;;;;;;4.42;72.13;93008.24;1621486;86;21275;-52
2022/12/12 09:47:47;;;;;;;40.60;26.85;;;;;;;4.54;71.62;93008.11;1619554;87;21149;-51
2022/12/12 09:50:32;;;;;;;34.67;24.77;;;;;;;4.67;71.41;93013.42;1613558;86;21085;-52
2022/12/12 09:53:05;;;;;;;35.75;25.30;;;;;;;4.78;71.03;93009.67;1608787;88;21646;-50
2022/12/12 09:55:50;;;;;;;161.40;73.40;;;;;;;4.77;70.60;93006.18;1574491;88;21125;-51
2022/12/12 09:58:44;;;;;;;77.60;40.35;;;;;;;4.66;70.71;93011.91;1589706;89;21183;-49
2022/12/12 10:01:35;;;;;;;50.40;30.08;;;;;;;4.51;70.82;93015.05;1575809;88;21236;-51
2022/12/12 10:04:16;;;;;;;42.20;26.97;;;;;;;4.32;71.02;93002.02;1591450;88;21214;-55
2022/12/12 10:06:53;;;;;;;40.48;26.35;;;;;;;4.38;71.72;93009.73;1585388;89;21206;-53
2022/12/12 10:10:13;;;;;;;41.00;26.65;;;;;;;4.54;71.78;93005.39;1523669;91;21099;-52
2022/12/12 10:12:41;;;;;;;40.25;24.18;;;;;;;4.61;71.46;93007.08;1531635;91;21173;-50
2022/12/12 10:15:14;;;;;;;33.30;22.80;;;;;;;4.77;70.91;93006.80;1527144;91;21349;-51
2022/12/12 10:17:41;;;;;;;37.50;24.18;;;;;;;4.74;70.61;93009.81;1486877;95;21169;-51
2022/12/12 10:20:18;;;;;;;31.33;20.72;;;;;;;4.69;70.44;93017.22;1460478;95;21364;-51
2022/12/12 10:22:51;;;;;;;33.95;23.32;;;;;;;4.61;70.42;93002.37;1476563;96;21158;-52
2022/12/12 10:25:58;;;;;;;40.05;25.05;;;;;;;4.49;70.58;93007.36;1483262;95;21661;-50
2022/12/12 10:28:28;;;;;;;50.25;28.75;;;;;;;4.49;70.58;93009.30;1476309;94;22011;-51
2022/12/12 10:31:23;;;;;;;44.73;28.90;;;;;;;4.44;70.90;93006.56;1480837;95;21355;-50
2022/12/12 10:34:15;;;;;;;42.73;25.88;;;;;;;4.43;70.92;93011.12;1477231;95;21442;-50
2022/12/12 10:36:56;;;;;;;39.65;26.95;;;;;;;4.37;70.93;93017.75;1453168;95;21255;-51
2022/12/12 10:40:05;;;;;;;41.20;26.75;;;;;;;4.38;70.92;93007.63;1437392;97;21668;-53
2022/12/12 10:42:47;;;;;;;53.05;33.55;;;;;;;4.42;70.56;93005.52;1455567;96;21939;-51
2022/12/12 10:45:58;;;;;;;53.58;32.15;;;;;;;4.48;70.66;93003.12;1404705;101;21563;-48
2022/12/12 10:48:28;;;;;;;62.13;34.88;;;;;;;4.50;70.30;92999.93;1388484;101;21288;-51
2022/12/12 10:51:07;;;;;;;33.15;21.97;;;;;;;4.47;70.37;93005.69;1392499;101;21188;-51
2022/12/12 10:53:34;;;;;;;24.63;17.55;;;;;;;4.48;69.61;93004.48;1371403;102;21217;-50
2022/12/12 10:56:26;;;;;;;22.25;17.32;;;;;;;4.50;69.19;93006.14;1419051;99;21178;-51
2022/12/12 10:58:57;;;;;;;24.23;17.00;;;;;;;4.52;69.31;93001.00;1415213;99;21591;-50
2022/12/12 11:01:34;;;;;;;18.80;15.15;;;;;;;4.63;68.81;92997.23;1424309;99;21833;-49
2022/12/12 11:04:05;;;;;;;17.37;14.05;;;;;;;4.65;68.29;93004.37;1389291;102;21179;-49
2022/12/12 11:09:50;;;;;;;21.42;16.15;;;;;;;4.71;68.29;93001.78;1380327;101;22030;-49
2022/12/12 11:12:19;;;;;;;24.50;18.15;;;;;;;4.82;68.48;93008.30;1394392;97;21444;-50
2022/12/12 11:14:59;;;;;;;20.68;15.72;;;;;;;5.04;68.26;93004.09;1441082;97;21206;-51
2022/12/12 11:17:33;;;;;;;22.45;16.85;;;;;;;5.26;67.65;92999.38;1453806;96;21192;-50
2022/12/12 11:20:03;;;;;;;23.52;18.02;;;;;;;5.44;66.84;92982.27;1418398;98;21369;-51
2022/12/12 11:22:31;;;;;;;29.45;22.80;;;;;;;5.76;66.75;92982.34;1446745;97;21180;-52
2022/12/12 11:24:59;;;;;;;31.10;21.93;;;;;;;6.08;66.24;92989.08;1449361;97;21186;-53
2022/12/12 11:27:30;;;;;;;20.00;15.15;;;;;;;6.55;65.42;92985.08;1466587;96;21209;-50
2022/12/12 11:30:22;;;;;;;34.38;22.82;;;;;;;6.87;63.41;92980.92;1491514;93;21227;-52
2022/12/12 11:32:54;;;;;;;46.65;27.87;;;;;;;7.02;61.91;92986.43;1586900;87;20998;-50
2022/12/12 11:35:34;;;;;;;46.23;26.80;;;;;;;7.31;61.80;92981.19;1623584;87;21116;-52
2022/12/12 11:38:20;;;;;;;36.60;23.98;;;;;;;7.90;60.87;92982.75;1525408;91;21122;-50
2022/12/12 11:41:03;;;;;;;41.63;27.40;;;;;;;8.70;60.19;92987.77;1537661;92;21280;-52
2022/12/12 11:43:37;;;;;;;;;;;;;;;9.51;58.63;92994.16;1606486;87;21739;-53
2022/12/12 11:46:16;;;;;;;21.15;14.60;;;;;;;10.28;56.13;92987.47;1593332;89;20191;-51
2022/12/12 11:48:55;;;;;;;12.35;9.15;;;;;;;10.88;52.32;92991.27;1508320;92;21126;-52
2022/12/12 11:51:38;;;;;;;10.30;7.20;;;;;;;11.25;49.79;92985.09;1507623;92;21058;-56
2022/12/12 11:54:17;;;;;;;16.32;11.20;;;;;;;11.54;47.17;92981.97;1503935;92;21253;-53
2022/12/12 11:57:00;;;;;;;14.98;10.48;;;;;;;11.80;44.31;92990.22;1483163;94;21086;-53
2022/12/12 12:00:12;;;;;;;19.35;11.70;;;;;;;11.74;43.17;92988.05;1499387;92;21049;-55
2022/12/12 12:03:00;;;;;;;8.75;6.25;;;;;;;11.26;42.77;93007.23;1479415;94;21547;-53
2022/12/12 12:05:57;;;;;;;10.05;8.35;;;;;;;10.40;43.06;93006.17;1468753;95;21154;-51
2022/12/12 12:08:39;;;;;;;38.53;24.52;;;;;;;9.94;44.28;93006.84;1511142;93;21251;-53
2022/12/12 12:11:26;;;;;;;35.10;19.15;;;;;;;9.81;45.13;93011.97;1523174;93;21527;-55
2022/12/12 12:14:26;;;;;;;26.20;23.42;;;;;;;9.68;43.92;93015.69;1503212;93;21627;-55
2022/12/12 12:17:16;;;;;;;12.68;10.15;;;;;;;9.29;44.19;93013.12;1539348;91;21097;-60
2022/12/12 12:20:09;;;;;;;30.55;20.95;;;;;;;8.66;43.70;93013.25;1596959;87;21081;-55
2022/12/12 12:23:05;;;;;;;54.83;38.28;;;;;;;8.11;45.78;93014.46;1590142;87;21654;-64
2022/12/12 12:25:59;;;;;;;32.33;22.93;;;;;;;7.72;46.36;93024.61;1584744;88;21115;-54
2022/12/12 12:29:07;;;;;;;31.97;13.75;;;;;;;7.27;47.03;93024.38;1611502;87;21059;-52
2022/12/12 12:31:46;;;;;;;28.70;17.73;;;;;;;6.81;48.24;93033.35;1547044;90;21055;-53
2022/12/12 12:34:45;;;;;;;103.15;56.95;;;;;;;6.25;49.51;93027.08;1519885;92;21176;-55
2022/12/12 12:37:25;;;;;;;75.35;43.05;;;;;;;5.88;49.93;93043.42;1458921;95;21143;-54
2022/12/12 12:40:17;;;;;;;43.95;26.77;;;;;;;5.50;50.97;93041.19;1434164;97;21278;-52
2022/12/12 12:43:08;;;;;;;34.08;20.80;;;;;;;5.23;51.40;93036.35;1429080;98;21148;-52
2022/12/12 12:45:48;;;;;;;31.93;21.35;;;;;;;5.00;51.86;93043.73;1448005;96;21646;-53
2022/12/12 12:48:20;;;;;;;39.48;22.17;;;;;;;4.78;52.40;93048.55;1413678;99;21100;-56
2022/12/12 12:51:07;;;;;;;37.00;21.40;;;;;;;4.65;53.09;93053.38;1390448;101;22349;-55
2022/12/12 12:53:48;;;;;;;40.65;25.95;;;;;;;4.54;53.36;93057.13;1400655;100;21546;-55
2022/12/12 12:56:22;;;;;;;21.07;13.45;;;;;;;4.44;53.98;93061.01;1340378;105;21132;-56
2022/12/12 12:58:50;;;;;;;43.90;29.63;;;;;;;4.35;54.28;93065.66;1365342;101;21608;-56
2022/12/12 13:01:40;;;;;;;74.22;66.15;;;;;;;4.22;54.93;93060.95;1399044;100;21591;-55
2022/12/12 13:04:21;;;;;;;21.52;17.85;;;;;;;4.15;55.10;93070.13;1398887;100;21362;-55
2022/12/12 13:07:04;;;;;;;38.15;28.92;;;;;;;4.08;54.96;93071.74;1385676;101;21683;-55
2022/12/12 13:09:47;;;;;;;29.67;19.73;;;;;;;3.93;55.42;93080.30;1363014;103;21603;-59
2022/12/12 13:12:22;;;;;;;28.65;17.77;;;;;;;3.90;55.67;93075.73;1418493;94;21105;-54
2022/12/12 13:14:55;;;;;;;22.58;16.32;;;;;;;3.87;55.90;93079.34;1458831;96;21906;-51
2022/12/12 13:17:54;;;;;;;27.05;17.60;;;;;;;3.85;56.41;93081.75;1488660;92;22147;-51
2022/12/12 13:20:24;;;;;;;13.85;9.30;;;;;;;3.82;56.46;93084.00;1548987;91;22002;-54
2022/12/12 13:23:05;;;;;;;13.20;11.03;;;;;;;3.70;56.52;93088.90;1561353;89;21223;-55
2022/12/12 13:25:45;;;;;;;9.80;7.35;;;;;;;3.72;56.90;93090.58;1557717;90;21064;-47
2022/12/12 13:28:16;;;;;;;8.98;8.00;;;;;;;3.73;56.29;93092.09;1551870;90;21051;-55
2022/12/12 13:31:07;;;;;;;12.82;9.45;;;;;;;3.64;57.04;93097.48;1555708;90;21245;-54
2022/12/12 13:33:51;;;;;;;22.22;14.20;;;;;;;3.61;57.22;93104.39;1574385;88;21138;-53
2022/12/12 13:36:24;;;;;;;32.93;25.72;;;;;;;3.57;57.72;93108.62;1591977;89;21021;-54
2022/12/12 13:38:55;;;;;;;14.87;11.90;;;;;;;3.62;58.10;93111.34;1520722;91;21228;-54
2022/12/12 13:41:24;;;;;;;28.32;17.62;;;;;;;3.63;58.35;93113.63;1514930;91;21075;-54
2022/12/12 13:43:58;;;;;;;42.08;34.38;;;;;;;3.62;58.71;93113.48;1527255;90;21838;-51
2022/12/12 13:46:35;;;;;;;20.32;17.92;;;;;;;3.65;59.07;93112.59;1518474;92;21440;-55
2022/12/12 13:49:13;;;;;;;35.00;21.60;;;;;;;3.60;59.57;93115.88;1548771;91;21061;-57
2022/12/12 13:51:44;;;;;;;35.13;24.20;;;;;;;3.46;59.94;93114.86;1544328;91;21068;-51
2022/12/12 13:54:21;;;;;;;18.55;13.88;;;;;;;3.32;60.29;93112.63;1552736;90;21964;-53
2022/12/12 13:57:04;;;;;;;10.48;9.28;;;;;;;3.30;60.69;93109.01;1558116;88;21251;-53
2022/12/12 13:59:59;;;;;;;13.88;9.18;;;;;;;3.25;60.84;93110.91;1563881;90;21030;-51
2022/12/12 14:02:40;;;;;;;24.92;13.98;;;;;;;3.22;61.34;93113.15;1550027;90;21046;-52
2022/12/12 14:05:16;;;;;;;35.58;20.57;;;;;;;3.19;61.38;93103.75;1555722;90;21140;-57
2022/12/12 14:08:01;;;;;;;24.80;12.98;;;;;;;3.17;61.71;93105.56;1516789;91;21586;-54
2022/12/12 14:10:45;;;;;;;23.73;14.30;;;;;;;3.15;61.08;93103.89;1494554;93;21355;-53
2022/12/12 14:13:26;;;;;;;13.40;11.33;;;;;;;3.05;60.99;93104.25;1469306;93;21132;-54
2022/12/12 14:16:07;;;;;;;14.40;12.90;;;;;;;3.06;61.18;93110.58;1474642;95;21072;-51
2022/12/12 14:18:41;;;;;;;10.53;9.20;;;;;;;3.18;60.93;93109.02;1398006;99;21352;-48
2022/12/12 14:21:13;;;;;;;9.20;6.67;;;;;;;3.23;61.15;93111.20;1447891;97;21171;-52
2022/12/12 14:23:43;;;;;;;7.83;6.90;;;;;;;3.23;61.18;93103.80;1437571;96;21251;-52
2022/12/12 14:26:33;;;;;;;9.00;6.85;;;;;;;3.27;61.34;93109.12;1418350;99;21063;-52
2022/12/12 14:29:26;;;;;;;9.58;7.60;;;;;;;3.32;61.32;93107.19;1439967;97;21102;-51
2022/12/12 14:32:10;;;;;;;15.75;12.15;;;;;;;3.32;61.39;93108.55;1379284;101;21217;-51
2022/12/12 14:35:07;;;;;;;12.80;10.78;;;;;;;3.33;61.44;93103.27;1378881;102;21620;-50
2022/12/12 14:38:11;;;;;;;12.65;11.10;;;;;;;3.30;61.42;93106.88;1348824;103;21665;-56
2022/12/12 14:40:46;;;;;;;16.27;14.58;;;;;;;3.16;60.62;93103.27;1356151;102;21833;-50
2022/12/12 14:43:32;;;;;;;18.48;11.25;;;;;;;2.98;60.59;93105.83;1371452;100;21214;-53
2022/12/12 14:46:00;;;;;;;20.55;11.83;;;;;;;2.82;59.57;93097.23;1348110;102;21198;-50
2022/12/12 14:48:36;;;;;;;15.25;11.55;;;;;;;2.65;59.24;93100.54;1355821;103;21118;-56
2022/12/12 14:51:19;;;;;;;10.82;8.08;;;;;;;2.50;59.10;93106.25;1335386;104;21274;-50
2022/12/12 14:53:51;;;;;;;7.75;6.58;;;;;;;2.43;58.70;93113.23;1372584;102;21757;-50
2022/12/12 14:56:29;;;;;;;17.45;11.60;;;;;;;2.30;58.76;93109.78;1376838;102;21162;-53
2022/12/12 14:59:07;;;;;;;23.47;15.70;;;;;;;2.18;59.16;93106.47;1371866;100;21167;-55
2022/12/12 15:01:44;;;;;;;33.98;26.70;;;;;;;2.07;58.19;93101.36;1360631;103;21184;-56
2022/12/12 15:04:27;;;;;;;30.32;23.02;;;;;;;1.95;57.51;93108.14;1366429;102;21757;-56
2022/12/12 15:06:59;;;;;;;40.10;25.65;;;;;;;1.89;57.82;93106.55;1368856;102;21269;-53
2022/12/12 15:09:47;;;;;;;28.40;17.32;;;;;;;1.83;58.17;93119.13;1368495;102;21167;-52
2022/12/12 15:12:25;;;;;;;20.95;16.32;;;;;;;1.73;58.14;93123.47;1479215;93;21210;-50
2022/12/12 15:14:55;;;;;;;83.87;46.77;;;;;;;1.68;58.25;93130.78;1490759;92;21178;-54
2022/12/12 15:17:47;;;;;;;44.70;30.10;;;;;;;1.64;58.21;93135.55;1475197;94;22147;-53
2022/12/12 15:20:20;;;;;;;46.33;27.60;;;;;;;1.61;58.46;93139.70;1472198;96;21076;-53
2022/12/12 15:22:57;;;;;;;60.52;36.88;;;;;;;1.62;58.64;93136.57;1424572;96;21209;-53
2022/12/12 15:25:31;;;;;;;37.08;26.68;;;;;;;1.62;58.65;93147.99;1455550;96;21120;-52
2022/12/12 15:28:12;;;;;;;33.70;22.13;;;;;;;1.59;58.97;93146.92;1401524;100;21117;-50
2022/12/12 15:30:56;;;;;;;33.00;18.05;;;;;;;1.55;59.10;93146.84;1401913;100;21211;-53
2022/12/12 15:33:41;;;;;;;34.60;17.77;;;;;;;1.50;59.01;93145.41;1403730;100;21104;-51
2022/12/12 15:36:29;;;;;;;39.05;22.75;;;;;;;1.47;59.20;93151.69;1402917;100;21134;-53
2022/12/12 15:39:13;;;;;;;74.60;37.80;;;;;;;1.45;58.92;93150.00;1391011;102;21098;-53
2022/12/12 15:41:41;;;;;;;39.80;22.50;;;;;;;1.42;59.37;93153.58;1383335;102;21156;-53
2022/12/12 15:44:19;;;;;;;82.55;43.98;;;;;;;1.39;58.46;93151.73;1398497;100;21927;-58
2022/12/12 15:46:47;;;;;;;58.63;29.75;;;;;;;1.38;59.05;93154.27;1429369;98;21228;-53
2022/12/12 15:49:41;;;;;;;56.58;23.20;;;;;;;1.38;59.17;93159.69;1420021;98;21639;-51
2022/12/12 15:52:22;;;;;;;30.10;17.42;;;;;;;1.43;59.05;93156.45;1498358;95;21545;-51
2022/12/12 15:54:54;;;;;;;30.80;20.50;;;;;;;1.41;58.84;93159.41;1498989;94;21177;-51
2022/12/12 15:57:24;;;;;;;24.90;17.32;;;;;;;1.34;59.00;93149.52;1479337;94;21311;-52
2022/12/12 15:59:57;;;;;;;33.65;21.77;;;;;;;1.27;59.52;93150.30;1505762;94;21020;-53
2022/12/12 20:12:30;;;;;;;21.15;13.93;;;;;;;-2.29;57.15;93430.08;1827114;77;27134;-52
2022/12/12 20:14:57;;;;;;;18.45;11.20;;;;;;;-2.32;57.07;93422.06;1789826;78;21029;-52
2022/12/12 20:17:24;;;;;;;20.80;14.73;;;;;;;-2.29;56.22;93423.95;1794536;78;22152;-52
2022/12/12 20:19:51;;;;;;;21.15;13.35;;;;;;;-2.25;56.71;93435.45;1756216;78;21130;-52
2022/12/12 20:22:18;;;;;;;14.13;12.03;;;;;;;-2.20;56.49;93436.36;1798185;78;21037;-52
2022/12/12 20:24:45;;;;;;;21.17;15.25;;;;;;;-2.12;55.97;93431.11;1788639;78;21017;-51